createdAt,value
2023-02-16T00:01:01.497Z,102571.38
2023-02-16T00:03:28.252Z,102576.59
2023-02-16T00:05:54.667Z,102565.28
2023-02-16T00:08:21.137Z,102568.78
2023-02-16T00:11:07.546Z,102565.31
2023-02-16T00:13:52.702Z,102567.94
2023-02-16T00:16:21.830Z,102572.31
2023-02-16T00:18:48.777Z,102568.00
2023-02-16T00:21:16.002Z,102570.59
2023-02-16T00:23:42.661Z,102564.53
2023-02-16T00:26:24.185Z,102563.66
2023-02-16T00:28:53.976Z,102574.13
2023-02-16T00:31:22.740Z,102570.66
2023-02-16T00:33:50.012Z,102571.53
2023-02-16T00:36:16.443Z,102570.66
2023-02-16T00:38:42.917Z,102569.75
2023-02-16T00:41:39.868Z,102561.03
2023-02-16T00:44:29.300Z,102570.66
2023-02-16T00:46:55.813Z,102567.13
2023-02-16T00:49:22.291Z,102555.84
2023-02-16T00:51:49.890Z,102555.00
2023-02-16T00:54:16.400Z,102562.00
2023-02-16T00:56:45.187Z,102560.31
2023-02-16T00:59:18.159Z,102565.53
2023-02-16T01:01:44.750Z,102553.34
2023-02-16T01:04:18.963Z,102559.44
2023-02-16T01:07:03.997Z,102556.84
2023-02-16T01:09:48.870Z,102549.88
2023-02-16T01:12:19.564Z,102546.38
2023-02-16T01:14:49.097Z,102549.00
2023-02-16T01:17:15.488Z,102544.63
2023-02-16T01:19:41.947Z,102553.34
2023-02-16T01:22:08.272Z,102551.63
2023-02-16T01:24:34.659Z,102547.31
2023-02-16T01:27:01.064Z,102544.72
2023-02-16T01:29:27.535Z,102543.84
2023-02-16T01:31:54.995Z,102539.47
2023-02-16T01:34:21.605Z,102545.53
2023-02-16T01:36:49.521Z,102538.63
2023-02-16T01:39:19.107Z,102532.53
2023-02-16T01:42:07.366Z,102532.53
2023-02-16T01:44:40.775Z,102533.44
2023-02-16T01:47:19.188Z,102526.50
2023-02-16T01:49:45.549Z,102529.16
2023-02-16T01:52:18.573Z,102527.44
2023-02-16T01:54:55.877Z,102527.47
2023-02-16T01:57:41.451Z,102523.06
2023-02-16T02:00:21.452Z,102523.06
2023-02-16T02:03:16.203Z,102528.25
2023-02-16T02:05:42.874Z,102512.59
2023-02-16T02:08:16.708Z,102511.72
2023-02-16T02:11:18.134Z,102512.63
2023-02-16T02:14:06.242Z,102506.50
2023-02-16T02:16:32.813Z,102512.59
2023-02-16T02:18:59.214Z,102507.38
2023-02-16T02:22:02.914Z,102503.91
2023-02-16T02:24:57.236Z,102503.03
2023-02-16T02:28:08.688Z,102498.69
2023-02-16T02:31:06.443Z,102489.09
2023-02-16T02:33:44.437Z,102486.47
2023-02-16T02:37:01.529Z,102490.81
2023-02-16T02:39:58.449Z,102477.75
2023-02-16T02:42:41.104Z,102483.88
2023-02-16T02:45:13.915Z,102485.59
2023-02-16T02:47:43.065Z,102481.28
2023-02-16T02:50:40.434Z,102479.50
2023-02-16T02:53:12.464Z,102482.16
2023-02-16T02:56:27.685Z,102471.75
2023-02-16T02:59:18.125Z,102471.75
2023-02-16T03:01:51.592Z,102471.69
2023-02-16T03:04:22.402Z,102470.84
2023-02-16T03:06:52.581Z,102471.69
2023-02-16T03:09:20.724Z,102462.97
2023-02-16T03:12:08.948Z,102457.75
2023-02-16T03:14:41.462Z,102462.09
2023-02-16T03:17:30.027Z,102457.75
2023-02-16T03:20:16.918Z,102458.59
2023-02-16T03:23:04.361Z,102455.97
2023-02-16T03:25:53.013Z,102452.47
2023-02-16T03:28:41.715Z,102440.31
2023-02-16T03:31:11.993Z,102438.59
2023-02-16T03:33:39.306Z,102445.53
2023-02-16T03:36:07.063Z,102451.59
2023-02-16T03:38:34.157Z,102445.53
2023-02-16T03:41:00.945Z,102449.03
2023-02-16T03:43:28.841Z,102457.72
2023-02-16T03:45:55.388Z,102448.16
2023-02-16T03:48:21.929Z,102442.88
2023-02-16T03:50:48.292Z,102451.59
2023-02-16T03:53:16.477Z,102455.97
2023-02-16T03:55:46.581Z,102458.59
2023-02-16T03:58:16.588Z,102455.97
2023-02-16T04:00:43.051Z,102457.69
2023-02-16T04:03:10.172Z,102465.50
2023-02-16T04:05:37.814Z,102464.66
2023-02-16T04:08:05.323Z,102465.53
2023-02-16T04:10:32.028Z,102466.44
2023-02-16T04:12:58.532Z,102465.59
2023-02-16T04:15:27.852Z,102462.13
2023-02-16T04:17:54.968Z,102464.69
2023-02-16T04:20:24.079Z,102464.69
2023-02-16T04:22:51.343Z,102471.66
2023-02-16T04:25:18.842Z,102462.06
2023-02-16T04:27:46.006Z,102464.69
2023-02-16T04:30:15.484Z,102470.78
2023-02-16T04:32:41.953Z,102454.19
2023-02-16T04:35:08.895Z,102458.56
2023-02-16T04:37:35.527Z,102460.28
2023-02-16T04:40:02.476Z,102456.84
2023-02-16T04:42:28.915Z,102461.22
2023-02-16T04:44:55.306Z,102469.03
2023-02-16T04:47:22.867Z,102466.44
2023-02-16T04:49:50.291Z,102473.34
2023-02-16T04:52:16.962Z,102465.50
2023-02-16T04:54:43.645Z,102458.56
2023-02-16T04:57:10.936Z,102454.19
2023-02-16T04:59:37.723Z,102455.91
2023-02-16T05:02:04.393Z,102452.47
2023-02-16T05:04:30.754Z,102459.41
2023-02-16T05:06:57.109Z,102451.56
2023-02-16T05:09:23.602Z,102448.13
2023-02-16T05:12:08.452Z,102449.84
2023-02-16T05:14:45.412Z,102437.69
2023-02-16T05:17:20.750Z,102444.63
2023-02-16T05:19:50.089Z,102434.19
2023-02-16T05:22:17.576Z,102430.69
2023-02-16T05:24:44.605Z,102435.03
2023-02-16T05:27:30.393Z,102430.66
2023-02-16T05:29:58.064Z,102428.03
2023-02-16T05:32:25.151Z,102428.94
2023-02-16T05:34:51.577Z,102428.94
2023-02-16T05:37:18.561Z,102417.63
2023-02-16T05:39:45.465Z,102427.25
2023-02-16T05:42:12.180Z,102424.66
2023-02-16T05:44:38.678Z,102431.63
2023-02-16T05:47:05.165Z,102434.28
2023-02-16T05:49:31.538Z,102443.81
2023-02-16T05:51:57.914Z,102435.97
2023-02-16T05:54:24.368Z,102438.59
2023-02-16T05:56:52.808Z,102434.19
2023-02-16T05:59:19.322Z,102428.06
2023-02-16T06:01:50.399Z,102428.09
2023-02-16T06:04:17.501Z,102442.88
2023-02-16T06:06:44.177Z,102443.75
2023-02-16T06:09:10.949Z,102442.84
2023-02-16T06:11:37.438Z,102432.41
2023-02-16T06:14:10.351Z,102426.34
2023-02-16T06:16:39.223Z,102433.28
2023-02-16T06:19:06.616Z,102438.50
2023-02-16T06:21:33.607Z,102441.16
2023-02-16T06:24:00.137Z,102440.31
2023-02-16T06:26:27.039Z,102448.16
2023-02-16T06:28:54.240Z,102446.41
2023-02-16T06:31:21.463Z,102439.44
2023-02-16T06:33:48.090Z,102439.41
2023-02-16T06:36:15.355Z,102443.78
2023-02-16T06:38:41.886Z,102452.47
2023-02-16T06:41:08.318Z,102448.13
2023-02-16T06:43:34.859Z,102451.59
2023-02-16T06:46:01.470Z,102451.56
2023-02-16T06:48:27.833Z,102448.97
2023-02-16T06:50:54.354Z,102448.16
2023-02-16T06:53:20.836Z,102442.94
2023-02-16T06:55:47.602Z,102436.78
2023-02-16T06:58:13.976Z,102436.78
2023-02-16T07:00:40.444Z,102441.16
2023-02-16T07:03:06.869Z,102444.63
2023-02-16T07:05:33.309Z,102444.66
2023-02-16T07:07:59.662Z,102447.22
2023-02-16T07:10:26.129Z,102447.22
2023-02-16T07:12:52.483Z,102456.84
2023-02-16T07:15:18.892Z,102453.38
2023-02-16T07:17:45.329Z,102451.59
2023-02-16T07:20:12.778Z,102463.78
2023-02-16T07:22:39.335Z,102456.78
2023-02-16T07:25:06.106Z,102463.72
2023-02-16T07:27:32.716Z,102463.69
2023-02-16T07:29:59.156Z,102468.94
2023-02-16T07:32:25.604Z,102466.31
2023-02-16T07:34:51.958Z,102465.47
2023-02-16T07:37:18.295Z,102468.03
2023-02-16T07:39:44.619Z,102471.53
2023-02-16T07:42:10.965Z,102474.97
2023-02-16T07:44:37.341Z,102479.34
2023-02-16T07:47:03.734Z,102482.81
2023-02-16T07:49:30.109Z,102480.22
2023-02-16T07:51:56.523Z,102484.59
2023-02-16T07:54:22.894Z,102475.84
2023-02-16T07:56:49.256Z,102475.84
2023-02-16T07:59:16.982Z,102487.09
2023-02-16T08:01:43.377Z,102477.53
2023-02-16T08:04:09.878Z,102488.81
2023-02-16T08:06:36.277Z,102491.41
2023-02-16T08:09:03.070Z,102487.91
2023-02-16T08:11:29.609Z,102496.59
2023-02-16T08:13:56.017Z,102497.44
2023-02-16T08:16:25.067Z,102502.66
2023-02-16T08:18:52.605Z,102495.69
2023-02-16T08:21:23.634Z,102497.38
2023-02-16T08:24:01.746Z,102501.72
2023-02-16T08:26:32.616Z,102499.13
2023-02-16T08:28:59.476Z,102502.59
2023-02-16T08:31:29.874Z,102499.09
2023-02-16T08:33:59.258Z,102500.81
2023-02-16T08:36:36.768Z,102499.03
2023-02-16T08:39:07.739Z,102502.50
2023-02-16T08:41:36.243Z,102509.47
2023-02-16T08:44:04.176Z,102516.44
2023-02-16T08:46:32.364Z,102508.59
2023-02-16T08:49:00.279Z,102513.81
2023-02-16T08:51:29.293Z,102506.84
2023-02-16T08:53:57.770Z,102516.41
2023-02-16T08:56:24.285Z,102513.78
2023-02-16T08:58:50.713Z,102509.44
2023-02-16T09:01:17.201Z,102516.38
2023-02-16T09:03:46.006Z,102511.13
2023-02-16T09:06:14.951Z,102521.56
2023-02-16T09:08:41.973Z,102523.31
2023-02-16T09:11:14.758Z,102523.31
2023-02-16T09:13:41.954Z,102518.97
2023-02-16T09:16:11.458Z,102522.47
2023-02-16T09:18:39.289Z,102513.78
2023-02-16T09:21:07.674Z,102518.16
2023-02-16T09:23:35.599Z,102523.38
2023-02-16T09:26:02.643Z,102527.72
2023-02-16T09:28:30.723Z,102531.25
2023-02-16T09:30:57.186Z,102526.94
2023-02-16T09:33:23.592Z,102517.41
2023-02-16T09:35:49.965Z,102517.41
2023-02-16T09:38:19.202Z,102506.06
2023-02-16T09:40:45.657Z,102497.34
2023-02-16T09:43:30.824Z,102491.22
2023-02-16T09:45:58.900Z,102501.66
2023-02-16T09:48:42.565Z,102522.53
2023-02-16T09:51:14.659Z,102521.72
2023-02-16T09:53:43.921Z,102515.59
2023-02-16T09:56:27.486Z,102521.72
2023-02-16T09:59:28.964Z,102522.59
2023-02-16T10:02:23.256Z,102528.72
2023-02-16T10:05:17.241Z,102515.66
2023-02-16T10:08:09.446Z,102524.34
2023-02-16T10:10:42.694Z,102534.78
2023-02-16T10:13:20.390Z,102526.94
2023-02-16T10:15:49.636Z,102532.19
2023-02-16T10:18:25.225Z,102531.34
2023-02-16T10:20:56.642Z,102526.09
2023-02-16T10:23:31.438Z,102525.19
2023-02-16T10:26:13.610Z,102513.84
2023-02-16T10:28:46.825Z,102524.31
2023-02-16T10:31:20.919Z,102521.66
2023-02-16T10:34:10.068Z,102525.09
2023-02-16T10:37:04.889Z,102517.19
2023-02-16T10:39:46.907Z,102525.88
2023-02-16T10:42:33.897Z,102522.34
2023-02-16T10:45:27.174Z,102531.91
2023-02-16T10:47:53.989Z,102522.28
2023-02-16T10:50:23.686Z,102520.50
2023-02-16T10:52:52.351Z,102519.56
2023-02-16T10:55:18.729Z,102530.88
2023-02-16T10:57:53.405Z,102516.00
2023-02-16T11:00:27.918Z,102524.69
2023-02-16T11:02:55.003Z,102515.97
2023-02-16T11:05:29.086Z,102503.72
2023-02-16T11:07:57.854Z,102511.50
2023-02-16T11:10:48.941Z,102497.53
2023-02-16T11:13:37.335Z,102495.72
2023-02-16T11:16:13.764Z,102500.91
2023-02-16T11:18:42.660Z,102491.31
2023-02-16T11:21:11.165Z,102488.66
2023-02-16T11:23:40.920Z,102483.41
2023-02-16T11:26:10.255Z,102475.56
2023-02-16T11:28:45.920Z,102479.88
2023-02-16T11:31:18.476Z,102473.72
2023-02-16T11:34:13.641Z,102466.69
2023-02-16T11:36:43.763Z,102465.78
2023-02-16T11:39:27.907Z,102469.25
2023-02-16T11:41:57.523Z,102466.59
2023-02-16T11:44:37.906Z,102467.44
2023-02-16T11:47:09.604Z,102468.25
2023-02-16T11:49:41.159Z,102469.13
2023-02-16T11:52:23.127Z,102464.75
2023-02-16T11:54:57.526Z,102459.47
2023-02-16T11:57:31.081Z,102465.50
2023-02-16T11:59:59.504Z,102464.59
2023-02-16T12:02:45.036Z,102456.69
2023-02-16T12:05:24.703Z,102456.59
2023-02-16T12:07:53.733Z,102452.19
2023-02-16T12:10:29.065Z,102454.72
2023-02-16T12:13:25.049Z,102444.22
2023-02-16T12:16:18.024Z,102438.91
2023-02-16T12:19:20.746Z,102444.03
2023-02-16T12:22:13.491Z,102434.38
2023-02-16T12:24:52.415Z,102426.47
2023-02-16T12:27:28.299Z,102412.44
2023-02-16T12:30:03.406Z,102407.91
2023-02-16T12:32:47.817Z,102399.91
2023-02-16T12:35:39.232Z,102389.31
2023-02-16T12:38:17.716Z,102380.44
2023-02-16T12:41:02.478Z,102378.56
2023-02-16T12:43:41.540Z,102382.91
2023-02-16T12:46:24.080Z,102379.34
2023-02-16T12:49:09.857Z,102372.22
2023-02-16T12:51:45.713Z,102371.28
2023-02-16T12:54:29.473Z,102359.84
2023-02-16T12:57:01.654Z,102355.34
2023-02-16T12:59:35.025Z,102357.91
2023-02-16T13:02:05.725Z,102350.84
2023-02-16T13:04:47.741Z,102354.19
2023-02-16T13:07:35.385Z,102349.78
2023-02-16T13:10:18.321Z,102352.38
2023-02-16T13:12:56.303Z,102349.63
2023-02-16T13:15:36.976Z,102350.47
2023-02-16T13:18:07.145Z,102345.34
2023-02-16T13:20:33.794Z,102353.16
2023-02-16T13:23:11.457Z,102342.72
2023-02-16T13:25:58.041Z,102338.38
2023-02-16T13:28:31.284Z,102343.50
2023-02-16T13:31:15.482Z,102327.78
2023-02-16T13:34:13.203Z,102332.16
2023-02-16T13:36:58.057Z,102326.75
2023-02-16T13:39:49.237Z,102309.25
2023-02-16T13:42:42.431Z,102304.88
2023-02-16T13:45:17.427Z,102301.31
2023-02-16T13:47:44.000Z,102308.16
2023-02-16T13:50:22.383Z,102295.91
2023-02-16T13:52:51.934Z,102286.22
2023-02-16T13:55:25.751Z,102278.22
2023-02-16T13:58:01.638Z,102276.38
2023-02-16T14:00:38.568Z,102278.00
2023-02-16T14:03:23.061Z,102276.00
2023-02-16T14:05:54.506Z,102276.00
2023-02-16T14:08:29.523Z,102270.56
2023-02-16T14:10:58.929Z,102275.75
2023-02-16T14:13:46.908Z,102274.03
2023-02-16T14:16:22.425Z,102274.88
2023-02-16T14:19:15.570Z,102269.59
2023-02-16T14:21:44.683Z,102273.84
2023-02-16T14:24:24.942Z,102266.88
2023-02-16T14:27:03.030Z,102264.25
2023-02-16T14:29:42.616Z,102268.56
2023-02-16T14:32:33.767Z,102238.84
2023-02-16T14:35:24.762Z,102250.13
2023-02-16T14:37:56.877Z,102248.34
2023-02-16T14:40:35.371Z,102239.53
2023-02-16T14:43:07.851Z,102242.09
2023-02-16T14:45:58.754Z,102248.94
2023-02-16T14:48:58.996Z,102241.91
2023-02-16T14:51:53.121Z,102246.19
2023-02-16T14:54:53.410Z,102236.53
2023-02-16T14:57:30.412Z,102248.75
2023-02-16T15:00:04.446Z,102254.13
2023-02-16T15:02:32.864Z,102246.97
2023-02-16T15:05:18.714Z,102252.28
2023-02-16T15:07:52.083Z,102248.69
2023-02-16T15:10:27.703Z,102251.25
2023-02-16T15:12:56.472Z,102246.84
2023-02-16T15:15:44.790Z,102247.69
2023-02-16T15:18:21.150Z,102245.19
2023-02-16T15:20:51.079Z,102249.59
2023-02-16T15:23:23.625Z,102255.72
2023-02-16T15:26:06.138Z,102252.22
2023-02-16T15:28:35.775Z,102256.75
2023-02-16T15:31:06.728Z,102249.84
2023-02-16T15:33:39.437Z,102247.34
2023-02-16T15:36:10.601Z,102252.63
2023-02-16T15:38:39.774Z,102260.56
2023-02-16T15:41:13.078Z,102262.28
2023-02-16T15:43:48.212Z,102258.88
2023-02-16T15:46:23.806Z,102254.59
2023-02-16T15:48:50.846Z,102256.34
2023-02-16T15:51:33.898Z,102252.94
2023-02-16T15:54:29.061Z,102248.66
2023-02-16T15:57:00.601Z,102259.25
2023-02-16T15:59:43.605Z,102251.38
2023-02-16T16:02:18.518Z,102261.03
2023-02-16T16:04:57.497Z,102251.44
2023-02-16T16:07:31.932Z,102245.38
2023-02-16T16:09:59.994Z,102247.97
2023-02-16T16:12:27.630Z,102247.13
2023-02-16T16:15:00.661Z,102243.69
2023-02-16T16:17:33.293Z,102235.88
2023-02-16T16:20:25.667Z,102238.56
2023-02-16T16:23:01.866Z,102227.19
2023-02-16T16:25:34.125Z,102222.81
2023-02-16T16:28:01.723Z,102220.22
2023-02-16T16:30:31.382Z,102229.03
2023-02-16T16:33:08.949Z,102231.63
2023-02-16T16:35:39.706Z,102220.34
2023-02-16T16:38:20.349Z,102228.19
2023-02-16T16:40:54.883Z,102230.81
2023-02-16T16:43:26.913Z,102216.88
2023-02-16T16:46:18.846Z,102209.94
2023-02-16T16:48:48.386Z,102210.84
2023-02-16T16:51:21.269Z,102207.34
2023-02-16T16:53:50.875Z,102192.50
2023-02-16T16:56:17.558Z,102195.97
2023-02-16T16:58:47.620Z,102190.72
2023-02-16T17:01:14.030Z,102190.72
2023-02-16T17:03:40.478Z,102197.75
2023-02-16T17:06:07.055Z,102192.50
2023-02-16T17:08:33.544Z,102192.50
2023-02-16T17:11:01.633Z,102194.25
2023-02-16T17:13:28.103Z,102191.63
2023-02-16T17:16:16.723Z,102181.16
2023-02-16T17:18:43.127Z,102183.75
2023-02-16T17:21:12.813Z,102174.16
2023-02-16T17:23:45.201Z,102171.53
2023-02-16T17:26:16.875Z,102173.25
2023-02-16T17:28:43.237Z,102180.19
2023-02-16T17:31:10.488Z,102169.72
2023-02-16T17:33:36.870Z,102165.28
2023-02-16T17:36:06.038Z,102167.91
2023-02-16T17:38:33.331Z,102162.66
2023-02-16T17:41:00.285Z,102163.50
2023-02-16T17:43:27.739Z,102169.63
2023-02-16T17:45:56.089Z,102167.84
2023-02-16T17:48:25.189Z,102159.16
2023-02-16T17:50:52.132Z,102171.34
2023-02-16T17:53:21.244Z,102166.09
2023-02-16T17:55:49.330Z,102166.09
2023-02-16T17:58:16.465Z,102173.91
2023-02-16T18:00:43.983Z,102179.16
2023-02-16T18:03:10.552Z,102176.53
2023-02-16T18:05:37.668Z,102177.38
2023-02-16T18:08:05.425Z,102177.38
2023-02-16T18:10:39.834Z,102165.16
2023-02-16T18:13:06.852Z,102173.91
2023-02-16T18:15:34.054Z,102177.38
2023-02-16T18:18:00.537Z,102174.75
2023-02-16T18:20:27.430Z,102172.13
2023-02-16T18:22:54.363Z,102163.38
2023-02-16T18:25:20.771Z,102162.47
2023-02-16T18:27:47.540Z,102175.59
2023-02-16T18:30:15.540Z,102172.97
2023-02-16T18:32:42.595Z,102160.69
2023-02-16T18:35:10.686Z,102156.34
2023-02-16T18:37:37.162Z,102160.66
2023-02-16T18:40:05.020Z,102158.97
2023-02-16T18:42:31.379Z,102159.81
2023-02-16T18:44:58.033Z,102151.88
2023-02-16T18:47:24.472Z,102157.19
2023-02-16T18:49:52.356Z,102168.50
2023-02-16T18:52:19.508Z,102165.88
2023-02-16T18:54:45.910Z,102167.63
2023-02-16T18:57:12.340Z,102167.63
2023-02-16T18:59:39.030Z,102165.81
2023-02-16T19:02:05.457Z,102167.59
2023-02-16T19:04:32.012Z,102165.81
2023-02-16T19:06:58.501Z,102170.22
2023-02-16T19:09:25.593Z,102174.53
2023-02-16T19:11:51.965Z,102170.16
2023-02-16T19:14:18.875Z,102168.38
2023-02-16T19:16:45.799Z,102169.25
2023-02-16T19:19:12.253Z,102177.16
2023-02-16T19:21:40.116Z,102170.09
2023-02-16T19:24:07.872Z,102169.19
2023-02-16T19:26:34.262Z,102171.88
2023-02-16T19:29:00.661Z,102163.97
2023-02-16T19:31:30.001Z,102160.47
2023-02-16T19:33:57.927Z,102164.81
2023-02-16T19:36:26.179Z,102159.56
2023-02-16T19:38:53.382Z,102158.66
2023-02-16T19:41:28.273Z,102155.97
2023-02-16T19:43:54.919Z,102155.13
2023-02-16T19:46:22.214Z,102155.13
2023-02-16T19:48:48.621Z,102162.09
2023-02-16T19:51:16.306Z,102162.09
2023-02-16T19:53:43.783Z,102161.22
2023-02-16T19:56:13.717Z,102162.09
2023-02-16T19:58:40.183Z,102153.31
2023-02-16T20:01:12.166Z,102149.00
2023-02-16T20:03:38.995Z,102155.91
2023-02-16T20:06:21.896Z,102146.25
2023-02-16T20:08:49.998Z,102156.75
2023-02-16T20:11:19.108Z,102147.97
2023-02-16T20:13:45.913Z,102147.97
2023-02-16T20:16:14.094Z,102147.09
2023-02-16T20:18:41.153Z,102146.16
2023-02-16T20:21:15.994Z,102145.31
2023-02-16T20:23:43.514Z,102147.03
2023-02-16T20:26:13.052Z,102137.38
2023-02-16T20:28:39.954Z,102138.25
2023-02-16T20:31:19.501Z,102151.31
2023-02-16T20:33:46.405Z,102146.91
2023-02-16T20:36:13.064Z,102137.28
2023-02-16T20:38:39.783Z,102139.88
2023-02-16T20:41:06.456Z,102138.09
2023-02-16T20:43:34.089Z,102135.41
2023-02-16T20:46:06.544Z,102143.28
2023-02-16T20:48:33.706Z,102137.06
2023-02-16T20:51:02.942Z,102142.31
2023-02-16T20:53:29.907Z,102143.19
2023-02-16T20:56:04.230Z,102123.97
2023-02-16T20:58:31.727Z,102128.31
2023-02-16T21:00:58.313Z,102126.50
2023-02-16T21:03:24.760Z,102127.34
2023-02-16T21:05:51.200Z,102129.13
2023-02-16T21:08:17.727Z,102122.03
2023-02-16T21:10:44.149Z,102117.72
2023-02-16T21:13:10.536Z,102117.66
2023-02-16T21:15:36.899Z,102115.88
2023-02-16T21:18:04.928Z,102110.66
2023-02-16T21:20:31.559Z,102115.84
2023-02-16T21:22:58.037Z,102120.19
2023-02-16T21:25:24.914Z,102129.72
2023-02-16T21:27:51.296Z,102118.44
2023-02-16T21:30:17.816Z,102121.91
2023-02-16T21:32:44.270Z,102112.25
2023-02-16T21:35:10.741Z,102115.75
2023-02-16T21:37:38.588Z,102120.94
2023-02-16T21:40:25.115Z,102111.34
2023-02-16T21:42:51.662Z,102116.53
2023-02-16T21:45:18.359Z,102112.16
2023-02-16T21:48:04.857Z,102092.06
2023-02-16T21:50:37.314Z,102098.16
2023-02-16T21:53:04.759Z,102092.03
2023-02-16T21:55:50.306Z,102096.41
2023-02-16T21:58:16.999Z,102091.19
2023-02-16T22:00:44.013Z,102091.19
2023-02-16T22:03:12.378Z,102092.91
2023-02-16T22:05:38.766Z,102092.03
2023-02-16T22:08:05.361Z,102089.34
2023-02-16T22:10:31.809Z,102093.75
2023-02-16T22:12:58.202Z,102093.75
2023-02-16T22:15:26.019Z,102098.09
2023-02-16T22:17:52.526Z,102092.03
2023-02-16T22:20:19.345Z,102098.16
2023-02-16T22:22:45.726Z,102100.78
2023-02-16T22:25:13.293Z,102101.66
2023-02-16T22:27:40.569Z,102111.25
2023-02-16T22:30:09.613Z,102106.03
2023-02-16T22:32:36.050Z,102110.31
2023-02-16T22:35:02.554Z,102109.47
2023-02-16T22:37:28.981Z,102105.06
2023-02-16T22:39:55.353Z,102094.59
2023-02-16T22:42:22.534Z,102098.16
2023-02-16T22:44:48.962Z,102095.53
2023-02-16T22:47:15.419Z,102099.88
2023-02-16T22:49:41.757Z,102107.75
2023-02-16T22:52:08.587Z,102111.28
2023-02-16T22:54:34.903Z,102112.16
2023-02-16T22:57:01.248Z,102114.78
2023-02-16T22:59:27.572Z,102110.38
2023-02-16T23:01:53.998Z,102102.56
2023-02-16T23:04:20.386Z,102096.41
2023-02-16T23:06:47.043Z,102098.16
2023-02-16T23:09:16.831Z,102099.94
2023-02-16T23:11:44.421Z,102106.03
2023-02-16T23:14:16.408Z,102109.53
2023-02-16T23:16:51.411Z,102103.41
2023-02-16T23:19:21.308Z,102099.88
2023-02-16T23:21:48.771Z,102105.13
2023-02-16T23:24:19.304Z,102102.50
2023-02-16T23:26:45.968Z,102099.00
2023-02-16T23:29:13.488Z,102093.75
2023-02-16T23:31:42.151Z,102099.84
2023-02-16T23:34:09.228Z,102095.53
2023-02-16T23:36:37.102Z,102098.16
2023-02-16T23:39:10.806Z,102098.16
2023-02-16T23:41:37.549Z,102100.78
2023-02-16T23:44:04.910Z,102091.13
2023-02-16T23:46:31.905Z,102095.53
2023-02-16T23:48:58.579Z,102095.53
2023-02-16T23:51:25.042Z,102095.53
2023-02-16T23:53:51.525Z,102088.50
2023-02-16T23:56:26.651Z,102083.25
2023-02-16T23:58:57.116Z,102084.09
